createdAt,value
2023-04-09T00:01:19.070Z,9.60
2023-04-09T00:03:45.625Z,9.60
2023-04-09T00:06:12.924Z,9.50
2023-04-09T00:08:39.417Z,9.40
2023-04-09T00:11:06.066Z,9.40
2023-04-09T00:13:38.996Z,9.20
2023-04-09T00:16:07.260Z,9.10
2023-04-09T00:18:33.900Z,9.10
2023-04-09T00:21:00.551Z,9.10
2023-04-09T00:23:27.128Z,9.20
2023-04-09T00:25:53.634Z,9.20
2023-04-09T00:28:20.116Z,9.20
2023-04-09T00:30:46.635Z,9.20
2023-04-09T00:33:13.164Z,9.10
2023-04-09T00:35:39.632Z,9.20
2023-04-09T00:38:06.247Z,9.20
2023-04-09T00:40:33.046Z,9.20
2023-04-09T00:42:59.543Z,9.20
2023-04-09T00:45:26.107Z,9.20
2023-04-09T00:47:53.439Z,9.10
2023-04-09T00:50:20.455Z,9.10
2023-04-09T00:52:47.112Z,9.20
2023-04-09T00:55:13.866Z,9.30
2023-04-09T00:57:40.448Z,9.30
2023-04-09T01:00:08.270Z,9.30
2023-04-09T01:02:35.238Z,9.30
2023-04-09T01:05:02.040Z,9.30
2023-04-09T01:08:00.642Z,9.40
2023-04-09T01:10:41.279Z,9.40
2023-04-09T01:13:17.996Z,9.40
2023-04-09T01:15:50.960Z,9.40
2023-04-09T01:18:29.577Z,9.40
2023-04-09T01:21:10.279Z,9.50
2023-04-09T01:23:58.625Z,9.70
2023-04-09T01:26:54.213Z,9.60
2023-04-09T01:29:25.818Z,9.60
2023-04-09T01:31:54.076Z,9.60
2023-04-09T01:34:21.617Z,9.60
2023-04-09T01:36:55.576Z,9.50
2023-04-09T01:39:22.788Z,9.50
2023-04-09T01:41:50.873Z,9.50
2023-04-09T01:44:19.225Z,9.50
2023-04-09T01:46:49.894Z,9.50
2023-04-09T01:49:17.626Z,9.50
2023-04-09T01:51:44.358Z,9.50
2023-04-09T01:54:10.976Z,9.40
2023-04-09T01:56:45.844Z,9.30
2023-04-09T01:59:12.762Z,9.40
2023-04-09T02:02:08.343Z,9.50
2023-04-09T02:04:46.659Z,9.40
2023-04-09T02:07:23.587Z,9.40
2023-04-09T02:09:53.212Z,9.40
2023-04-09T02:12:20.283Z,9.30
2023-04-09T02:14:51.145Z,9.20
2023-04-09T02:17:18.310Z,9.20
2023-04-09T02:19:46.940Z,9.30
2023-04-09T02:22:15.270Z,9.30
2023-04-09T02:24:42.023Z,9.30
2023-04-09T02:27:08.885Z,9.30
2023-04-09T02:29:35.618Z,9.20
2023-04-09T02:32:02.188Z,9.10
2023-04-09T02:34:28.789Z,9.30
2023-04-09T02:36:55.406Z,9.30
2023-04-09T02:39:21.927Z,9.30
2023-04-09T02:41:48.794Z,9.20
2023-04-09T02:44:15.361Z,9.30
2023-04-09T02:46:44.198Z,9.30
2023-04-09T02:49:10.823Z,9.20
2023-04-09T02:51:37.306Z,9.20
2023-04-09T02:54:04.127Z,9.20
2023-04-09T02:56:30.680Z,9.20
2023-04-09T02:58:57.156Z,9.30
2023-04-09T03:01:23.732Z,9.30
2023-04-09T03:03:51.116Z,9.20
2023-04-09T03:06:18.520Z,9.20
2023-04-09T03:08:45.583Z,9.20
2023-04-09T03:11:12.103Z,9.20
2023-04-09T03:13:38.610Z,9.10
2023-04-09T03:16:05.650Z,9.10
2023-04-09T03:18:32.316Z,9.00
2023-04-09T03:20:58.795Z,9.00
2023-04-09T03:23:27.170Z,9.10
2023-04-09T03:26:06.567Z,9.10
2023-04-09T03:28:43.769Z,9.10
2023-04-09T03:31:10.301Z,9.10
2023-04-09T03:33:39.834Z,9.00
2023-04-09T03:36:07.329Z,9.00
2023-04-09T03:38:54.676Z,8.80
2023-04-09T03:41:34.226Z,8.80
2023-04-09T03:44:04.514Z,8.80
2023-04-09T03:46:38.814Z,8.70
2023-04-09T03:49:08.788Z,8.70
2023-04-09T03:51:42.297Z,8.70
2023-04-09T03:54:08.880Z,8.60
2023-04-09T03:56:35.624Z,8.60
2023-04-09T03:59:04.619Z,8.50
2023-04-09T04:01:40.104Z,8.50
2023-04-09T04:04:06.923Z,8.50
2023-04-09T04:06:41.702Z,8.50
2023-04-09T04:09:26.540Z,8.40
2023-04-09T04:12:02.113Z,8.30
2023-04-09T04:14:43.131Z,8.30
2023-04-09T04:17:20.629Z,8.20
2023-04-09T04:19:48.116Z,8.10
2023-04-09T04:22:14.637Z,8.10
2023-04-09T04:24:45.203Z,8.00
2023-04-09T04:27:16.502Z,8.10
2023-04-09T04:29:43.019Z,8.00
2023-04-09T04:32:23.411Z,8.10
2023-04-09T04:34:51.717Z,8.10
2023-04-09T04:37:24.982Z,8.10
2023-04-09T04:39:55.700Z,8.00
2023-04-09T04:42:23.173Z,8.00
2023-04-09T04:44:49.991Z,8.00
2023-04-09T04:47:39.454Z,8.00
2023-04-09T04:50:07.023Z,7.90
2023-04-09T04:52:42.977Z,7.90
2023-04-09T04:55:09.834Z,7.80
2023-04-09T04:57:36.336Z,7.80
2023-04-09T05:00:03.688Z,7.70
2023-04-09T05:02:30.436Z,7.70
2023-04-09T05:05:14.625Z,7.70
2023-04-09T05:07:47.317Z,7.80
2023-04-09T05:10:14.717Z,7.80
2023-04-09T05:12:42.787Z,7.80
2023-04-09T05:15:12.265Z,7.90
2023-04-09T05:17:38.755Z,8.00
2023-04-09T05:20:07.448Z,8.10
2023-04-09T05:22:44.730Z,8.20
2023-04-09T05:25:11.503Z,8.30
2023-04-09T05:27:40.755Z,8.10
2023-04-09T05:30:08.614Z,8.00
2023-04-09T05:32:35.538Z,8.10
2023-04-09T05:35:02.342Z,8.20
2023-04-09T05:37:30.709Z,8.30
2023-04-09T05:39:57.243Z,8.40
2023-04-09T05:42:24.473Z,8.40
2023-04-09T05:45:02.229Z,8.40
2023-04-09T05:47:29.146Z,8.40
2023-04-09T05:50:07.531Z,8.30
2023-04-09T05:52:34.638Z,8.30
2023-04-09T05:55:01.794Z,8.40
2023-04-09T05:57:41.734Z,8.40
2023-04-09T06:00:08.937Z,8.40
2023-04-09T06:02:44.929Z,8.40
2023-04-09T06:05:11.632Z,8.50
2023-04-09T06:07:38.565Z,8.60
2023-04-09T06:10:05.630Z,8.70
2023-04-09T06:12:34.557Z,8.80
2023-04-09T06:15:01.085Z,8.80
2023-04-09T06:17:29.024Z,8.70
2023-04-09T06:19:55.676Z,8.70
2023-04-09T06:22:22.176Z,8.70
2023-04-09T06:24:48.662Z,8.80
2023-04-09T06:27:15.598Z,8.80
2023-04-09T06:29:42.042Z,8.90
2023-04-09T06:32:08.867Z,8.90
2023-04-09T06:34:35.351Z,8.90
2023-04-09T06:37:01.867Z,8.90
2023-04-09T06:39:28.540Z,8.90
2023-04-09T06:41:55.063Z,8.90
2023-04-09T06:44:36.443Z,9.00
2023-04-09T06:47:02.921Z,9.00
2023-04-09T06:49:29.479Z,9.10
2023-04-09T06:51:56.114Z,9.10
2023-04-09T06:54:22.620Z,9.20
2023-04-09T06:56:49.101Z,9.30
2023-04-09T06:59:16.516Z,9.40
2023-04-09T07:01:43.285Z,9.40
2023-04-09T07:04:09.999Z,9.40
2023-04-09T07:06:36.569Z,9.50
2023-04-09T07:09:03.292Z,9.60
2023-04-09T07:11:29.856Z,9.80
2023-04-09T07:13:56.920Z,10.00
2023-04-09T07:16:23.634Z,10.00
2023-04-09T07:18:50.614Z,10.10
2023-04-09T07:21:17.120Z,10.20
2023-04-09T07:23:43.612Z,10.30
2023-04-09T07:26:10.382Z,10.40
2023-04-09T07:28:37.043Z,10.60
2023-04-09T07:31:03.809Z,10.70
2023-04-09T07:33:31.637Z,10.70
2023-04-09T07:35:58.234Z,10.80
2023-04-09T07:38:24.811Z,10.70
2023-04-09T07:40:51.598Z,10.60
2023-04-09T07:43:18.434Z,10.70
2023-04-09T07:45:49.346Z,10.80
2023-04-09T07:48:15.898Z,10.80
2023-04-09T07:50:42.697Z,10.90
2023-04-09T07:53:09.221Z,11.00
2023-04-09T07:55:35.830Z,11.10
2023-04-09T07:58:04.052Z,11.20
2023-04-09T08:00:30.821Z,11.30
2023-04-09T08:02:57.477Z,11.40
2023-04-09T08:05:24.202Z,11.50
2023-04-09T08:07:51.302Z,11.60
2023-04-09T08:10:17.797Z,11.60
2023-04-09T08:12:44.826Z,11.80
2023-04-09T08:15:14.241Z,11.80
2023-04-09T08:17:40.939Z,11.80
2023-04-09T08:20:08.060Z,11.80
2023-04-09T08:22:34.647Z,11.80
2023-04-09T08:25:02.798Z,11.90
2023-04-09T08:27:29.574Z,12.00
2023-04-09T08:29:56.211Z,12.00
2023-04-09T08:32:22.961Z,12.10
2023-04-09T08:34:49.547Z,12.10
2023-04-09T08:37:16.594Z,12.10
2023-04-09T08:39:43.133Z,12.20
2023-04-09T08:42:12.505Z,12.20
2023-04-09T08:44:39.268Z,12.40
2023-04-09T08:47:11.394Z,12.50
2023-04-09T08:49:40.854Z,12.70
2023-04-09T08:52:08.085Z,12.70
2023-04-09T08:54:34.758Z,12.90
2023-04-09T08:57:05.320Z,13.00
2023-04-09T08:59:36.735Z,12.80
2023-04-09T09:02:10.914Z,13.10
2023-04-09T09:04:50.929Z,13.30
2023-04-09T09:07:17.663Z,13.40
2023-04-09T09:09:53.296Z,13.40
2023-04-09T09:12:38.815Z,13.70
2023-04-09T09:15:26.780Z,14.10
2023-04-09T09:17:56.322Z,14.50
2023-04-09T09:20:23.881Z,14.80
2023-04-09T09:22:55.177Z,14.90
2023-04-09T09:25:26.264Z,14.80
2023-04-09T09:27:53.971Z,14.70
2023-04-09T09:30:22.391Z,14.70
2023-04-09T09:33:08.819Z,14.60
2023-04-09T09:35:57.607Z,14.70
2023-04-09T09:38:24.226Z,15.00
2023-04-09T09:40:52.411Z,15.00
2023-04-09T09:43:19.096Z,15.20
2023-04-09T09:45:47.724Z,15.10
2023-04-09T09:48:15.411Z,14.90
2023-04-09T09:50:42.764Z,14.90
2023-04-09T09:53:11.240Z,14.90
2023-04-09T09:55:43.300Z,14.90
2023-04-09T09:58:17.236Z,15.00
2023-04-09T10:00:46.405Z,15.00
2023-04-09T10:03:21.145Z,15.00
2023-04-09T10:05:49.064Z,15.00
2023-04-09T10:08:16.187Z,15.00
2023-04-09T10:10:43.169Z,15.00
2023-04-09T10:13:21.851Z,15.00
2023-04-09T10:15:48.927Z,15.20
2023-04-09T10:18:16.416Z,15.40
2023-04-09T10:20:58.609Z,15.30
2023-04-09T10:23:38.602Z,15.20
2023-04-09T10:26:05.821Z,15.00
2023-04-09T10:28:32.744Z,14.90
2023-04-09T10:30:59.748Z,15.00
2023-04-09T10:33:28.072Z,15.00
2023-04-09T10:35:59.627Z,14.90
2023-04-09T10:38:37.619Z,14.90
2023-04-09T10:41:08.055Z,14.90
2023-04-09T10:43:37.399Z,15.10
2023-04-09T10:46:24.640Z,15.10
2023-04-09T10:49:07.947Z,15.20
2023-04-09T10:51:41.238Z,15.30
2023-04-09T10:54:33.818Z,15.20
2023-04-09T10:57:09.143Z,15.10
2023-04-09T10:59:45.249Z,15.20
2023-04-09T11:02:27.300Z,15.40
2023-04-09T11:05:12.309Z,15.70
2023-04-09T11:07:43.468Z,16.20
2023-04-09T11:10:10.218Z,16.40
2023-04-09T11:12:36.725Z,16.60
2023-04-09T11:15:03.674Z,16.60
2023-04-09T11:17:35.838Z,16.30
2023-04-09T11:20:03.373Z,16.10
2023-04-09T11:22:29.879Z,16.10
2023-04-09T11:24:56.734Z,16.10
2023-04-09T11:27:23.273Z,16.10
2023-04-09T11:29:55.536Z,15.90
2023-04-09T11:32:22.111Z,15.80
2023-04-09T11:34:48.601Z,15.70
2023-04-09T11:37:16.977Z,15.60
2023-04-09T11:39:46.854Z,15.60
2023-04-09T11:42:16.451Z,15.70
2023-04-09T11:44:45.883Z,15.90
2023-04-09T11:47:14.517Z,15.80
2023-04-09T11:49:41.111Z,15.90
2023-04-09T11:52:07.775Z,16.00
2023-04-09T11:54:34.553Z,16.00
2023-04-09T11:57:03.813Z,16.10
2023-04-09T11:59:30.855Z,16.10
2023-04-09T12:01:58.544Z,16.00
2023-04-09T12:04:25.472Z,16.00
2023-04-09T12:06:58.596Z,16.10
2023-04-09T12:09:25.415Z,16.20
2023-04-09T12:11:52.197Z,16.30
2023-04-09T12:14:21.452Z,16.60
2023-04-09T12:16:52.089Z,16.90
2023-04-09T12:19:20.419Z,17.10
2023-04-09T12:21:54.809Z,17.10
2023-04-09T12:24:23.412Z,17.10
2023-04-09T12:26:50.444Z,17.00
2023-04-09T12:29:19.373Z,17.00
2023-04-09T12:31:46.353Z,17.00
2023-04-09T12:34:13.636Z,16.90
2023-04-09T12:36:44.035Z,16.80
2023-04-09T12:39:10.594Z,16.70
2023-04-09T12:41:37.219Z,16.50
2023-04-09T12:44:04.622Z,16.50
2023-04-09T12:46:32.432Z,16.50
2023-04-09T12:48:59.225Z,16.60
2023-04-09T12:51:25.833Z,16.80
2023-04-09T12:53:52.545Z,16.70
2023-04-09T12:56:19.384Z,16.60
2023-04-09T12:58:45.971Z,16.70
2023-04-09T13:01:12.672Z,16.70
2023-04-09T13:03:41.202Z,16.60
2023-04-09T13:06:08.156Z,16.60
2023-04-09T13:08:34.713Z,16.50
2023-04-09T13:11:01.261Z,16.40
2023-04-09T13:13:28.608Z,16.40
2023-04-09T13:15:55.172Z,16.50
2023-04-09T13:18:21.885Z,16.50
2023-04-09T13:20:48.419Z,16.60
2023-04-09T13:23:14.922Z,16.60
2023-04-09T13:25:41.483Z,16.80
2023-04-09T13:28:07.974Z,17.00
2023-04-09T13:30:34.515Z,17.40
2023-04-09T13:33:01.412Z,17.50
2023-04-09T13:35:27.968Z,17.50
2023-04-09T13:37:54.400Z,17.40
2023-04-09T13:40:20.958Z,17.60
2023-04-09T13:42:47.414Z,17.80
2023-04-09T13:45:14.033Z,17.90
2023-04-09T13:47:41.129Z,18.10
2023-04-09T13:50:10.278Z,18.20
2023-04-09T13:52:36.854Z,18.20
2023-04-09T13:55:04.735Z,18.40
2023-04-09T13:57:31.251Z,18.50
2023-04-09T13:59:57.787Z,18.40
2023-04-09T14:02:24.673Z,17.90
2023-04-09T14:04:51.385Z,17.80
2023-04-09T14:07:17.844Z,17.50
2023-04-09T14:09:44.379Z,17.20
2023-04-09T14:12:10.891Z,16.90
2023-04-09T14:14:37.468Z,16.80
2023-04-09T14:17:03.941Z,16.70
2023-04-09T14:19:30.432Z,16.80
2023-04-09T14:21:57.024Z,16.50
2023-04-09T14:24:23.515Z,16.40
2023-04-09T14:26:53.003Z,16.30
2023-04-09T14:29:20.966Z,16.10
2023-04-09T14:31:47.630Z,16.10
2023-04-09T14:34:14.259Z,15.90
2023-04-09T14:36:40.832Z,15.70
2023-04-09T14:39:07.317Z,15.80
2023-04-09T14:41:34.321Z,15.80
2023-04-09T14:44:01.011Z,15.80
2023-04-09T14:46:27.647Z,15.80
2023-04-09T14:48:54.454Z,16.00
2023-04-09T14:51:21.312Z,16.40
2023-04-09T14:53:48.482Z,16.40
2023-04-09T14:56:15.025Z,16.40
2023-04-09T14:58:41.531Z,16.40
2023-04-09T15:01:08.065Z,16.30
2023-04-09T15:03:35.042Z,16.40
2023-04-09T15:06:01.844Z,16.20
2023-04-09T15:08:28.404Z,16.00
2023-04-09T15:10:55.025Z,15.80
2023-04-09T15:13:21.597Z,16.00
2023-04-09T15:15:48.152Z,16.10
2023-04-09T15:18:14.707Z,16.10
2023-04-09T15:20:43.368Z,15.90
2023-04-09T15:23:10.756Z,15.90
2023-04-09T15:25:37.455Z,16.10
2023-04-09T15:28:04.417Z,16.40
2023-04-09T15:30:31.107Z,16.70
2023-04-09T15:32:57.797Z,17.00
2023-04-09T15:35:26.529Z,17.20
2023-04-09T15:37:53.041Z,17.40
2023-04-09T15:40:19.824Z,17.70
2023-04-09T15:42:46.339Z,17.70
2023-04-09T15:45:14.954Z,17.60
2023-04-09T15:47:41.492Z,17.60
2023-04-09T15:50:09.221Z,17.60
2023-04-09T15:52:36.291Z,17.70
2023-04-09T15:55:02.880Z,17.70
2023-04-09T15:57:29.409Z,17.60
2023-04-09T15:59:55.878Z,17.70
2023-04-09T16:02:24.100Z,17.70
2023-04-09T16:04:52.422Z,17.70
2023-04-09T16:07:18.990Z,17.80
2023-04-09T16:09:46.156Z,17.70
2023-04-09T16:12:12.811Z,17.70
2023-04-09T16:14:40.314Z,17.90
2023-04-09T16:17:07.151Z,17.90
2023-04-09T16:19:33.801Z,17.90
2023-04-09T16:22:00.678Z,17.80
2023-04-09T16:24:28.494Z,17.90
2023-04-09T16:26:55.091Z,17.90
2023-04-09T16:29:21.862Z,17.70
2023-04-09T16:31:48.462Z,17.90
2023-04-09T16:34:15.241Z,18.10
2023-04-09T16:36:41.729Z,18.00
2023-04-09T16:39:08.245Z,17.80
2023-04-09T16:41:36.948Z,17.70
2023-04-09T16:44:03.818Z,17.70
2023-04-09T16:46:30.344Z,17.70
2023-04-09T16:48:56.918Z,17.80
2023-04-09T16:51:23.502Z,17.70
2023-04-09T16:53:50.360Z,17.70
2023-04-09T16:56:16.895Z,17.70
2023-04-09T16:58:43.351Z,17.70
2023-04-09T17:01:09.891Z,17.70
2023-04-09T17:03:36.454Z,17.80
2023-04-09T17:06:04.654Z,17.90
2023-04-09T17:08:31.153Z,17.80
2023-04-09T17:11:02.269Z,17.80
2023-04-09T17:13:35.055Z,17.70
2023-04-09T17:16:02.874Z,17.60
2023-04-09T17:18:29.803Z,17.70
2023-04-09T17:20:56.455Z,17.60
2023-04-09T17:23:23.035Z,17.60
2023-04-09T17:25:49.552Z,17.50
2023-04-09T17:28:18.674Z,17.50
2023-04-09T17:30:45.575Z,17.30
2023-04-09T17:33:12.636Z,17.20
2023-04-09T17:35:39.211Z,17.10
2023-04-09T17:38:05.828Z,16.70
2023-04-09T17:40:32.357Z,16.20
2023-04-09T17:42:59.950Z,15.90
2023-04-09T17:45:26.678Z,15.60
2023-04-09T17:47:53.161Z,15.50
2023-04-09T17:50:19.827Z,15.40
2023-04-09T17:52:46.759Z,15.30
2023-04-09T17:55:13.844Z,15.30
2023-04-09T17:57:41.654Z,15.20
2023-04-09T18:00:09.709Z,15.20
2023-04-09T18:02:45.901Z,15.10
2023-04-09T18:05:12.829Z,15.10
2023-04-09T18:07:39.589Z,14.90
2023-04-09T18:10:06.804Z,14.80
2023-04-09T18:12:33.360Z,14.70
2023-04-09T18:14:59.847Z,14.60
2023-04-09T18:17:26.738Z,14.60
2023-04-09T18:19:54.498Z,14.50
2023-04-09T18:22:21.246Z,14.40
2023-04-09T18:24:47.698Z,14.20
2023-04-09T18:27:14.339Z,14.10
2023-04-09T18:29:41.384Z,14.00
2023-04-09T18:32:08.990Z,13.80
2023-04-09T18:34:36.306Z,13.70
2023-04-09T18:37:02.852Z,13.70
2023-04-09T18:39:30.852Z,13.60
2023-04-09T18:41:57.580Z,13.60
2023-04-09T18:44:24.068Z,13.50
2023-04-09T18:46:50.769Z,13.40
2023-04-09T18:49:17.841Z,13.30
2023-04-09T18:51:44.322Z,13.30
2023-04-09T18:54:10.830Z,13.20
2023-04-09T18:56:37.279Z,13.10
2023-04-09T18:59:03.851Z,13.00
2023-04-09T19:01:30.713Z,13.00
2023-04-09T19:03:57.423Z,12.90
2023-04-09T19:06:25.501Z,12.70
2023-04-09T19:08:57.858Z,12.70
2023-04-09T19:11:25.928Z,12.60
2023-04-09T19:13:52.736Z,12.50
2023-04-09T19:16:20.738Z,12.40
2023-04-09T19:18:47.360Z,12.40
2023-04-09T19:21:13.807Z,12.30
2023-04-09T19:23:40.346Z,12.20
2023-04-09T19:26:06.842Z,12.10
2023-04-09T19:28:33.455Z,12.10
2023-04-09T19:31:02.061Z,12.00
2023-04-09T19:33:29.992Z,11.90
2023-04-09T19:35:56.573Z,11.90
2023-04-09T19:38:23.385Z,11.80
2023-04-09T19:40:50.600Z,11.80
2023-04-09T19:43:17.787Z,11.70
2023-04-09T19:45:44.615Z,11.70
2023-04-09T19:48:12.487Z,11.70
2023-04-09T19:50:40.784Z,11.70
2023-04-09T19:53:07.404Z,11.80
2023-04-09T19:55:34.413Z,11.70
2023-04-09T19:58:01.686Z,11.70
2023-04-09T20:00:28.436Z,11.70
2023-04-09T20:02:55.692Z,11.50
2023-04-09T20:05:22.641Z,11.20
2023-04-09T20:07:51.503Z,11.10
2023-04-09T20:10:18.314Z,11.10
2023-04-09T20:12:49.302Z,11.10
2023-04-09T20:15:17.769Z,11.00
2023-04-09T20:17:47.242Z,10.90
2023-04-09T20:20:18.089Z,10.90
2023-04-09T20:22:47.466Z,10.80
2023-04-09T20:25:16.658Z,10.70
2023-04-09T20:27:43.169Z,10.70
2023-04-09T20:30:10.049Z,10.70
2023-04-09T20:32:37.711Z,10.70
2023-04-09T20:35:05.467Z,10.50
2023-04-09T20:37:31.952Z,10.40
2023-04-09T20:39:59.377Z,10.30
2023-04-09T20:42:26.201Z,10.20
2023-04-09T20:44:52.789Z,10.20
2023-04-09T20:47:20.934Z,10.30
2023-04-09T20:49:48.958Z,10.30
2023-04-09T20:52:15.507Z,10.20
2023-04-09T20:54:43.006Z,10.20
2023-04-09T20:57:10.997Z,10.20
2023-04-09T20:59:38.566Z,10.20
2023-04-09T21:02:05.242Z,10.20
2023-04-09T21:04:31.952Z,10.20
2023-04-09T21:06:58.530Z,10.20
2023-04-09T21:09:26.059Z,10.10
2023-04-09T21:11:52.576Z,10.00
2023-04-09T21:14:19.057Z,10.00
2023-04-09T21:16:45.944Z,9.80
2023-04-09T21:19:12.541Z,9.60
2023-04-09T21:21:39.049Z,9.50
2023-04-09T21:24:05.652Z,9.50
2023-04-09T21:26:48.718Z,9.40
2023-04-09T21:29:16.304Z,9.40
2023-04-09T21:31:42.875Z,9.30
2023-04-09T21:34:09.649Z,9.30
2023-04-09T21:36:39.085Z,9.20
2023-04-09T21:39:05.791Z,9.20
2023-04-09T21:41:32.280Z,9.10
2023-04-09T21:44:03.321Z,9.10
2023-04-09T21:46:29.892Z,9.10
2023-04-09T21:48:56.678Z,9.10
2023-04-09T21:51:23.141Z,9.10
2023-04-09T21:53:49.657Z,9.00
2023-04-09T21:56:16.186Z,8.90
2023-04-09T21:58:42.695Z,8.80
2023-04-09T22:01:19.194Z,8.80
2023-04-09T22:03:59.846Z,8.70
2023-04-09T22:06:31.097Z,8.60
2023-04-09T22:08:58.717Z,8.70
2023-04-09T22:11:28.094Z,8.60
2023-04-09T22:14:00.940Z,8.50
2023-04-09T22:16:28.375Z,8.50
2023-04-09T22:18:58.018Z,8.40
2023-04-09T22:21:26.122Z,8.30
2023-04-09T22:23:53.142Z,8.30
2023-04-09T22:26:20.207Z,8.20
2023-04-09T22:28:47.062Z,8.10
2023-04-09T22:31:14.490Z,8.10
2023-04-09T22:33:46.892Z,8.20
2023-04-09T22:36:13.776Z,8.10
2023-04-09T22:38:43.205Z,8.00
2023-04-09T22:41:10.074Z,8.00
2023-04-09T22:43:37.153Z,8.00
2023-04-09T22:46:04.077Z,8.00
2023-04-09T22:48:33.910Z,8.10
2023-04-09T22:51:01.057Z,8.10
2023-04-09T22:53:28.177Z,8.00
2023-04-09T22:55:59.271Z,8.10
2023-04-09T22:58:29.307Z,8.20
2023-04-09T23:00:57.242Z,8.20
2023-04-09T23:03:24.901Z,8.10
2023-04-09T23:05:51.501Z,8.10
2023-04-09T23:08:17.975Z,8.10
2023-04-09T23:10:44.542Z,8.10
2023-04-09T23:13:13.816Z,8.10
2023-04-09T23:15:41.386Z,8.10
2023-04-09T23:18:07.899Z,7.90
2023-04-09T23:20:35.702Z,7.90
2023-04-09T23:23:02.690Z,7.70
2023-04-09T23:25:29.513Z,7.70
2023-04-09T23:27:56.004Z,7.70
2023-04-09T23:30:23.622Z,7.60
2023-04-09T23:32:52.507Z,7.60
2023-04-09T23:35:20.572Z,7.60
2023-04-09T23:37:48.878Z,7.60
2023-04-09T23:40:17.892Z,7.50
2023-04-09T23:42:45.325Z,7.30
2023-04-09T23:45:11.793Z,7.30
2023-04-09T23:47:38.329Z,7.30
2023-04-09T23:50:06.910Z,7.20
2023-04-09T23:52:35.140Z,7.10
2023-04-09T23:55:02.574Z,7.00
2023-04-09T23:57:29.599Z,7.00
2023-04-09T23:59:56.842Z,7.00
